createdAt,value
2018-09-15T00:01:41.581Z,98507.76
2018-09-15T00:04:13.920Z,98506.31
2018-09-15T00:06:46.249Z,98508.91
2018-09-15T00:09:18.605Z,98508.27
2018-09-15T00:11:50.965Z,98506.86
2018-09-15T00:14:23.272Z,98512.03
2018-09-15T00:16:55.579Z,98507.61
2018-09-15T00:19:27.934Z,98505.79
2018-09-15T00:22:00.277Z,98502.82
2018-09-15T00:24:32.561Z,98508.38
2018-09-15T00:27:04.901Z,98507.43
2018-09-15T00:29:37.195Z,98505.56
2018-09-15T00:32:09.482Z,98509.68
2018-09-15T00:34:41.778Z,98515.43
2018-09-15T00:37:14.070Z,98515.81
2018-09-15T00:39:46.373Z,98514.14
2018-09-15T00:42:18.666Z,98515.73
2018-09-15T00:44:51.140Z,98515.50
2018-09-15T00:47:23.410Z,98511.93
2018-09-15T00:49:55.748Z,98502.80
2018-09-15T00:52:28.019Z,98513.87
2018-09-15T00:55:00.360Z,98510.62
2018-09-15T00:57:32.645Z,98515.16
2018-09-15T01:00:06.257Z,98514.73
2018-09-15T01:02:38.520Z,98514.62
2018-09-15T01:05:10.838Z,98512.34
2018-09-15T01:07:43.209Z,98517.20
2018-09-15T01:10:15.542Z,98511.64
2018-09-15T01:12:47.828Z,98514.91
2018-09-15T01:15:20.089Z,98510.04
2018-09-15T01:17:52.368Z,98508.67
2018-09-15T01:20:24.665Z,98517.67
2018-09-15T01:22:56.943Z,98524.35
2018-09-15T01:25:29.208Z,98526.89
2018-09-15T01:28:01.473Z,98527.65
2018-09-15T01:30:33.786Z,98528.86
2018-09-15T01:33:06.473Z,98522.74
2018-09-15T01:35:38.738Z,98524.87
2018-09-15T01:38:11.013Z,98534.03
2018-09-15T01:40:43.244Z,98528.11
2018-09-15T01:43:15.500Z,98539.03
2018-09-15T01:45:47.765Z,98550.25
2018-09-15T01:48:20.041Z,98545.83
2018-09-15T01:50:52.345Z,98544.55
2018-09-15T01:53:24.591Z,98539.13
2018-09-15T01:55:56.834Z,98531.47
2018-09-15T01:58:29.102Z,98534.17
2018-09-15T02:01:01.326Z,98541.50
2018-09-15T02:03:33.609Z,98540.83
2018-09-15T02:06:05.933Z,98534.70
2018-09-15T02:08:38.235Z,98545.37
2018-09-15T02:11:10.470Z,98550.95
2018-09-15T02:13:42.768Z,98547.16
2018-09-15T02:16:15.077Z,98553.12
2018-09-15T02:18:47.336Z,98547.16
2018-09-15T02:21:19.566Z,98549.58
2018-09-15T02:23:51.836Z,98552.25
2018-09-15T02:26:24.102Z,98553.25
2018-09-15T02:28:56.431Z,98551.63
2018-09-15T02:31:28.650Z,98554.59
2018-09-15T02:34:00.897Z,98559.42
2018-09-15T02:36:33.261Z,98559.80
2018-09-15T02:39:06.701Z,98563.34
2018-09-15T02:41:38.948Z,98563.38
2018-09-15T02:44:11.210Z,98563.26
2018-09-15T02:46:43.496Z,98564.34
2018-09-15T02:49:15.713Z,98562.22
2018-09-15T02:51:47.999Z,98563.97
2018-09-15T02:54:20.257Z,98563.38
2018-09-15T02:56:52.520Z,98560.80
2018-09-15T02:59:24.846Z,98570.18
2018-09-15T03:01:57.101Z,98567.14
2018-09-15T03:04:29.376Z,98566.72
2018-09-15T03:07:01.665Z,98567.55
2018-09-15T03:09:33.897Z,98569.84
2018-09-15T03:12:06.537Z,98573.27
2018-09-15T03:14:38.768Z,98580.39
2018-09-15T03:17:11.046Z,98577.39
2018-09-15T03:19:43.353Z,98584.81
2018-09-15T03:22:15.695Z,98578.43
2018-09-15T03:24:47.951Z,98585.10
2018-09-15T03:27:20.273Z,98584.77
2018-09-15T03:29:52.536Z,98585.44
2018-09-15T03:32:24.828Z,98586.86
2018-09-15T03:34:57.088Z,98584.89
2018-09-15T03:37:29.368Z,98589.56
2018-09-15T03:40:01.684Z,98593.81
2018-09-15T03:42:33.937Z,98595.56
2018-09-15T03:45:06.226Z,98597.69
2018-09-15T03:47:38.606Z,98604.06
2018-09-15T03:50:10.861Z,98603.19
2018-09-15T03:52:43.180Z,98604.41
2018-09-15T03:55:15.428Z,98605.98
2018-09-15T03:57:47.726Z,98608.10
2018-09-15T04:00:19.992Z,98603.86
2018-09-15T04:02:52.245Z,98611.02
2018-09-15T04:05:24.544Z,98609.13
2018-09-15T04:07:56.859Z,98613.96
2018-09-15T04:10:29.125Z,98611.16
2018-09-15T04:13:01.412Z,98615.19
2018-09-15T04:15:33.641Z,98620.01
2018-09-15T04:18:05.952Z,98627.08
2018-09-15T04:20:38.181Z,98623.81
2018-09-15T04:23:10.420Z,98624.09
2018-09-15T04:25:43.139Z,98627.88
2018-09-15T04:28:15.412Z,98633.83
2018-09-15T04:30:47.660Z,98637.23
2018-09-15T04:33:19.914Z,98635.40
2018-09-15T04:35:52.213Z,98638.53
2018-09-15T04:38:24.436Z,98636.61
2018-09-15T04:40:56.684Z,98642.73
2018-09-15T04:43:28.956Z,98640.70
2018-09-15T04:46:01.220Z,98651.16
2018-09-15T04:48:33.469Z,98656.43
2018-09-15T04:51:05.792Z,98657.67
2018-09-15T04:53:38.073Z,98658.00
2018-09-15T04:56:10.354Z,98664.91
2018-09-15T04:58:42.887Z,98670.39
2018-09-15T05:01:15.086Z,98667.53
2018-09-15T05:03:47.370Z,98678.33
2018-09-15T05:06:19.752Z,98677.26
2018-09-15T05:08:52.011Z,98680.17
2018-09-15T05:11:24.304Z,98679.56
2018-09-15T05:13:56.561Z,98687.45
2018-09-15T05:16:28.815Z,98688.23
2018-09-15T05:19:01.122Z,98685.97
2018-09-15T05:21:33.405Z,98687.26
2018-09-15T05:24:05.851Z,98696.70
2018-09-15T05:26:38.089Z,98691.46
2018-09-15T05:29:10.393Z,98695.00
2018-09-15T05:31:42.781Z,98694.12
2018-09-15T05:34:15.018Z,98700.96
2018-09-15T05:36:47.257Z,98699.84
2018-09-15T05:39:19.553Z,98698.14
2018-09-15T05:41:51.856Z,98705.70
2018-09-15T05:44:24.161Z,98712.10
2018-09-15T05:46:56.444Z,98711.97
2018-09-15T05:49:28.750Z,98712.02
2018-09-15T05:52:01.028Z,98715.98
2018-09-15T05:54:33.333Z,98720.73
2018-09-15T05:57:05.625Z,98730.41
2018-09-15T05:59:37.933Z,98731.20
2018-09-15T06:02:10.164Z,98736.13
2018-09-15T06:04:42.488Z,98738.84
2018-09-15T06:07:14.793Z,98743.73
2018-09-15T06:09:47.053Z,98737.73
2018-09-15T06:12:19.351Z,98742.16
2018-09-15T06:14:51.616Z,98742.44
2018-09-15T06:17:23.922Z,98745.65
2018-09-15T06:19:56.193Z,98747.61
2018-09-15T06:22:28.554Z,98742.39
2018-09-15T06:25:00.852Z,98742.19
2018-09-15T06:27:33.186Z,98751.97
2018-09-15T06:30:06.264Z,98753.67
2018-09-15T06:32:38.598Z,98755.69
2018-09-15T06:35:10.860Z,98760.52
2018-09-15T06:37:43.297Z,98762.70
2018-09-15T06:40:15.628Z,98760.98
2018-09-15T06:42:47.903Z,98761.06
2018-09-15T06:45:20.182Z,98762.27
2018-09-15T06:47:52.457Z,98762.02
2018-09-15T06:50:24.785Z,98764.27
2018-09-15T06:52:57.118Z,98766.98
2018-09-15T06:55:29.519Z,98767.42
2018-09-15T06:58:01.766Z,98768.07
2018-09-15T07:00:34.068Z,98773.37
2018-09-15T07:03:06.385Z,98770.83
2018-09-15T07:05:38.691Z,98780.22
2018-09-15T07:08:11.038Z,98785.61
2018-09-15T07:10:43.353Z,98784.72
2018-09-15T07:13:15.646Z,98786.08
2018-09-15T07:15:48.000Z,98792.58
2018-09-15T07:18:20.299Z,98797.13
2018-09-15T07:20:52.727Z,98797.33
2018-09-15T07:23:25.754Z,98800.70
2018-09-15T07:25:58.193Z,98808.77
2018-09-15T07:28:30.457Z,98813.27
2018-09-15T07:31:02.813Z,98815.60
2018-09-15T07:33:35.064Z,98817.31
2018-09-15T07:36:07.413Z,98819.59
2018-09-15T07:38:39.748Z,98814.75
2018-09-15T07:41:12.134Z,98816.56
2018-09-15T07:43:44.424Z,98812.94
2018-09-15T07:46:16.740Z,98816.14
2018-09-15T07:48:49.025Z,98816.73
2018-09-15T07:51:21.389Z,98822.34
2018-09-15T07:53:53.746Z,98815.91
2018-09-15T07:56:26.105Z,98817.63
2018-09-15T07:58:58.388Z,98819.33
2018-09-15T08:01:30.770Z,98816.75
2018-09-15T08:04:03.081Z,98824.00
2018-09-15T08:06:35.450Z,98821.38
2018-09-15T08:09:08.000Z,98820.16
2018-09-15T08:11:40.389Z,98819.11
2018-09-15T08:14:12.654Z,98822.47
2018-09-15T08:16:44.998Z,98825.72
2018-09-15T08:19:17.296Z,98821.81
2018-09-15T08:21:49.674Z,98816.78
2018-09-15T08:24:21.957Z,98814.31
2018-09-15T08:26:54.261Z,98815.39
2018-09-15T08:29:26.566Z,98817.27
2018-09-15T08:31:58.966Z,98815.34
2018-09-15T08:34:31.304Z,98811.20
2018-09-15T08:37:03.609Z,98812.98
2018-09-15T08:39:36.021Z,98808.13
2018-09-15T08:42:08.314Z,98810.52
2018-09-15T08:44:40.856Z,98808.52
2018-09-15T08:47:13.177Z,98815.10
2018-09-15T08:49:45.505Z,98812.87
2018-09-15T08:52:17.819Z,98807.66
2018-09-15T08:54:50.137Z,98810.27
2018-09-15T08:57:22.478Z,98814.75
2018-09-15T08:59:54.844Z,98819.14
2018-09-15T09:02:27.153Z,98820.20
2018-09-15T09:04:59.565Z,98819.22
2018-09-15T09:07:31.876Z,98820.73
2018-09-15T09:10:04.280Z,98814.91
2018-09-15T09:12:36.592Z,98821.08
2018-09-15T09:15:09.018Z,98817.44
2018-09-15T09:17:41.348Z,98821.03
2018-09-15T09:20:13.735Z,98822.34
2018-09-15T09:22:46.237Z,98817.81
2018-09-15T09:25:18.606Z,98822.81
2018-09-15T09:27:50.913Z,98821.78
2018-09-15T09:30:23.377Z,98822.82
2018-09-15T09:32:55.719Z,98829.23
2018-09-15T09:35:28.091Z,98827.60
2018-09-15T09:38:00.432Z,98822.70
2018-09-15T09:40:32.845Z,98824.81
2018-09-15T09:43:05.189Z,98823.42
2018-09-15T09:45:37.595Z,98823.05
2018-09-15T09:48:10.002Z,98820.31
2018-09-15T09:50:42.588Z,98816.02
2018-09-15T09:53:14.841Z,98818.59
2018-09-15T09:55:47.253Z,98823.41
2018-09-15T09:58:19.658Z,98821.94
2018-09-15T10:00:57.804Z,98812.89
2018-09-15T10:03:30.135Z,98816.52
2018-09-15T10:06:02.497Z,98813.72
2018-09-15T10:08:34.870Z,98820.34
2018-09-15T10:11:07.178Z,98821.32
2018-09-15T10:13:39.504Z,98818.73
2018-09-15T10:16:11.901Z,98815.42
2018-09-15T10:18:44.209Z,98809.83
2018-09-15T10:21:16.616Z,98804.11
2018-09-15T10:23:48.943Z,98812.92
2018-09-15T10:26:21.269Z,98814.27
2018-09-15T10:28:53.704Z,98817.47
2018-09-15T10:31:26.001Z,98816.47
2018-09-15T10:33:58.339Z,98812.55
2018-09-15T10:36:30.696Z,98808.66
2018-09-15T10:39:04.177Z,98807.55
2018-09-15T10:41:36.513Z,98806.05
2018-09-15T10:44:08.865Z,98799.70
2018-09-15T10:46:41.189Z,98802.85
2018-09-15T10:49:13.588Z,98806.66
2018-09-15T10:51:45.972Z,98804.11
2018-09-15T10:54:18.424Z,98807.61
2018-09-15T10:56:50.772Z,98812.85
2018-09-15T10:59:23.113Z,98815.36
2018-09-15T11:01:55.420Z,98819.77
2018-09-15T11:04:27.757Z,98817.92
2018-09-15T11:07:00.099Z,98816.89
2018-09-15T11:09:32.421Z,98812.11
2018-09-15T11:12:04.721Z,98809.69
2018-09-15T11:14:37.071Z,98802.34
2018-09-15T11:17:09.423Z,98803.05
2018-09-15T11:19:41.777Z,98810.52
2018-09-15T11:22:14.126Z,98809.71
2018-09-15T11:24:46.497Z,98799.27
2018-09-15T11:27:18.872Z,98811.45
2018-09-15T11:29:51.253Z,98816.84
2018-09-15T11:32:23.721Z,98812.77
2018-09-15T11:34:56.041Z,98810.36
2018-09-15T11:37:28.410Z,98810.41
2018-09-15T11:40:00.668Z,98809.66
2018-09-15T11:42:33.027Z,98807.20
2018-09-15T11:45:05.616Z,98814.06
2018-09-15T11:47:38.010Z,98806.39
2018-09-15T11:50:10.320Z,98808.77
2018-09-15T11:52:42.668Z,98809.45
2018-09-15T11:55:15.028Z,98801.85
2018-09-15T11:57:47.406Z,98810.56
2018-09-15T12:00:23.085Z,98804.75
2018-09-15T12:02:55.467Z,98804.69
2018-09-15T12:05:27.804Z,98796.05
2018-09-15T12:08:00.135Z,98785.66
2018-09-15T12:10:32.441Z,98794.91
2018-09-15T12:13:04.779Z,98798.28
2018-09-15T12:15:37.121Z,98792.41
2018-09-15T12:18:09.453Z,98795.06
2018-09-15T12:20:42.197Z,98788.31
2018-09-15T12:23:14.526Z,98788.17
2018-09-15T12:25:46.821Z,98795.67
2018-09-15T12:28:19.191Z,98790.31
2018-09-15T12:30:51.588Z,98788.96
2018-09-15T12:33:24.059Z,98779.38
2018-09-15T12:35:56.330Z,98798.89
2018-09-15T12:38:28.718Z,98797.88
2018-09-15T12:41:01.039Z,98796.90
2018-09-15T12:43:33.363Z,98793.73
2018-09-15T12:46:05.740Z,98790.45
2018-09-15T12:48:38.033Z,98794.48
2018-09-15T12:51:10.622Z,98789.56
2018-09-15T12:53:43.038Z,98784.48
2018-09-15T12:56:15.356Z,98782.42
2018-09-15T12:58:47.713Z,98774.85
2018-09-15T13:01:20.065Z,98775.53
2018-09-15T13:03:52.451Z,98768.76
2018-09-15T13:06:24.816Z,98765.05
2018-09-15T13:08:57.234Z,98761.25
2018-09-15T13:11:30.439Z,98758.31
2018-09-15T13:14:02.807Z,98758.80
2018-09-15T13:16:35.157Z,98760.64
2018-09-15T13:19:13.254Z,98769.03
2018-09-15T13:21:45.585Z,98765.31
2018-09-15T13:24:17.894Z,98769.56
2018-09-15T13:26:50.219Z,98766.63
2018-09-15T13:29:22.592Z,98758.20
2018-09-15T13:31:54.876Z,98757.64
2018-09-15T13:34:27.328Z,98758.83
2018-09-15T13:36:59.597Z,98756.95
2018-09-15T13:39:31.884Z,98762.88
2018-09-15T13:42:11.063Z,98755.48
2018-09-15T13:44:43.357Z,98756.86
2018-09-15T13:47:15.683Z,98761.72
2018-09-15T13:49:47.961Z,98763.33
2018-09-15T13:52:20.282Z,98757.48
2018-09-15T13:54:52.584Z,98754.24
2018-09-15T13:57:24.893Z,98753.38
2018-09-15T13:59:57.201Z,98756.78
2018-09-15T14:02:29.656Z,98755.99
2018-09-15T14:05:01.933Z,98748.17
2018-09-15T14:07:34.233Z,98746.92
2018-09-15T14:10:07.049Z,98756.16
2018-09-15T14:12:39.647Z,98750.09
2018-09-15T14:15:11.956Z,98748.23
2018-09-15T14:17:44.272Z,98740.25
2018-09-15T14:20:16.567Z,98751.75
2018-09-15T14:22:48.871Z,98752.94
2018-09-15T14:25:21.162Z,98756.92
2018-09-15T14:27:53.530Z,98753.38
2018-09-15T14:30:25.806Z,98749.22
2018-09-15T14:32:58.104Z,98752.94
2018-09-15T14:35:30.422Z,98742.50
2018-09-15T14:38:02.729Z,98743.33
2018-09-15T14:40:35.065Z,98741.55
2018-09-15T14:43:07.597Z,98740.86
2018-09-15T14:45:39.914Z,98742.34
2018-09-15T14:48:12.185Z,98731.84
2018-09-15T14:50:44.528Z,98732.84
2018-09-15T14:53:16.820Z,98720.98
2018-09-15T14:55:49.141Z,98731.77
2018-09-15T14:58:21.426Z,98734.48
2018-09-15T15:00:53.757Z,98731.13
2018-09-15T15:03:26.176Z,98731.60
2018-09-15T15:05:58.481Z,98722.59
2018-09-15T15:08:30.805Z,98723.97
2018-09-15T15:11:03.065Z,98732.59
2018-09-15T15:13:35.356Z,98730.84
2018-09-15T15:16:07.653Z,98722.52
2018-09-15T15:18:39.978Z,98720.27
2018-09-15T15:21:12.240Z,98723.04
2018-09-15T15:23:44.572Z,98719.63
2018-09-15T15:26:16.859Z,98725.41
2018-09-15T15:28:49.162Z,98722.02
2018-09-15T15:31:21.578Z,98727.16
2018-09-15T15:33:53.883Z,98725.57
2018-09-15T15:36:26.121Z,98722.23
2018-09-15T15:38:58.717Z,98719.84
2018-09-15T15:41:31.029Z,98720.95
2018-09-15T15:44:03.432Z,98724.74
2018-09-15T15:46:35.877Z,98721.21
2018-09-15T15:49:08.265Z,98723.10
2018-09-15T15:51:40.622Z,98711.95
2018-09-15T15:54:13.011Z,98724.15
2018-09-15T15:56:45.326Z,98729.30
2018-09-15T15:59:18.028Z,98727.25
2018-09-15T16:01:50.382Z,98731.96
2018-09-15T16:04:22.751Z,98732.18
2018-09-15T16:06:55.001Z,98739.43
2018-09-15T16:09:27.291Z,98738.13
2018-09-15T16:11:59.681Z,98740.36
2018-09-15T16:14:31.994Z,98743.77
2018-09-15T16:17:04.379Z,98749.32
2018-09-15T16:19:36.729Z,98752.70
2018-09-15T16:22:09.132Z,98754.45
2018-09-15T16:24:41.520Z,98754.89
2018-09-15T16:27:13.925Z,98750.81
2018-09-15T16:29:46.256Z,98744.37
2018-09-15T16:32:18.641Z,98751.68
2018-09-15T16:34:50.945Z,98750.13
2018-09-15T16:37:23.252Z,98756.49
2018-09-15T16:39:55.515Z,98749.91
2018-09-15T16:42:27.791Z,98750.70
2018-09-15T16:45:00.136Z,98751.83
2018-09-15T16:47:32.770Z,98757.34
2018-09-15T16:50:05.099Z,98768.45
2018-09-15T16:52:37.347Z,98764.40
2018-09-15T16:55:09.703Z,98770.73
2018-09-15T16:57:42.013Z,98768.73
2018-09-15T17:00:14.329Z,98766.30
2018-09-15T17:02:46.657Z,98762.24
2018-09-15T17:05:18.966Z,98764.63
2018-09-15T17:07:51.336Z,98769.16
2018-09-15T17:10:23.668Z,98770.27
2018-09-15T17:12:55.978Z,98775.09
2018-09-15T17:15:28.352Z,98780.91
2018-09-15T17:18:00.631Z,98781.43
2018-09-15T17:20:32.980Z,98779.45
2018-09-15T17:23:05.381Z,98783.56
2018-09-15T17:25:37.794Z,98783.30
2018-09-15T17:28:10.121Z,98793.94
2018-09-15T17:30:42.450Z,98791.14
2018-09-15T17:33:14.700Z,98799.49
2018-09-15T17:35:47.072Z,98798.77
2018-09-15T17:38:19.356Z,98809.59
2018-09-15T17:40:51.693Z,98806.05
2018-09-15T17:43:23.992Z,98810.63
2018-09-15T17:45:56.380Z,98822.25
2018-09-15T17:48:28.763Z,98821.80
2018-09-15T17:51:01.102Z,98834.81
2018-09-15T17:53:33.362Z,98833.29
2018-09-15T17:56:05.732Z,98836.83
2018-09-15T17:58:38.059Z,98842.13
2018-09-15T18:01:10.372Z,98844.36
2018-09-15T18:03:42.632Z,98845.76
2018-09-15T18:06:14.980Z,98852.33
2018-09-15T18:08:47.278Z,98851.13
2018-09-15T18:11:19.615Z,98854.53
2018-09-15T18:13:51.977Z,98854.29
2018-09-15T18:16:24.279Z,98850.78
2018-09-15T18:18:56.665Z,98852.16
2018-09-15T18:21:28.973Z,98851.23
2018-09-15T18:24:01.330Z,98854.99
2018-09-15T18:26:38.120Z,98857.70
2018-09-15T18:29:10.436Z,98858.70
2018-09-15T18:31:42.721Z,98864.41
2018-09-15T18:34:15.057Z,98863.19
2018-09-15T18:36:47.513Z,98867.06
2018-09-15T18:39:19.713Z,98878.31
2018-09-15T18:41:53.048Z,98875.59
2018-09-15T18:44:25.384Z,98885.73
2018-09-15T18:46:57.665Z,98882.56
2018-09-15T18:49:30.026Z,98888.06
2018-09-15T18:52:02.337Z,98900.16
2018-09-15T18:54:34.741Z,98902.08
2018-09-15T18:57:07.157Z,98906.75
2018-09-15T18:59:39.595Z,98909.42
2018-09-15T19:02:11.915Z,98904.76
2018-09-15T19:04:44.314Z,98905.30
2018-09-15T19:07:16.619Z,98909.27
2018-09-15T19:09:48.937Z,98915.11
2018-09-15T19:12:21.304Z,98909.91
2018-09-15T19:14:53.782Z,98916.25
2018-09-15T19:17:26.074Z,98918.16
2018-09-15T19:19:58.493Z,98913.00
2018-09-15T19:22:30.897Z,98914.34
2018-09-15T19:25:03.368Z,98908.05
2018-09-15T19:27:35.754Z,98915.30
2018-09-15T19:30:08.097Z,98915.51
2018-09-15T19:32:40.498Z,98922.79
2018-09-15T19:35:12.845Z,98914.08
2018-09-15T19:37:45.224Z,98919.64
2018-09-15T19:40:17.590Z,98920.69
2018-09-15T19:42:50.046Z,98927.23
2018-09-15T19:45:22.453Z,98922.95
2018-09-15T19:47:54.797Z,98921.66
2018-09-15T19:50:27.229Z,98921.03
2018-09-15T19:52:59.629Z,98928.83
2018-09-15T19:55:31.970Z,98925.36
2018-09-15T19:58:04.618Z,98923.85
2018-09-15T20:00:37.041Z,98924.00
2018-09-15T20:03:09.408Z,98921.81
2018-09-15T20:05:41.768Z,98915.88
2018-09-15T20:08:14.169Z,98916.13
2018-09-15T20:10:46.537Z,98922.89
2018-09-15T20:13:18.880Z,98925.34
2018-09-15T20:15:50.113Z,98931.70
2018-09-15T20:18:21.373Z,98932.35
2018-09-15T20:20:52.581Z,98925.40
2018-09-15T20:23:24.967Z,98934.42
2018-09-15T20:25:57.300Z,98931.34
2018-09-15T20:28:29.721Z,98931.98
2018-09-15T20:31:02.190Z,98932.05
2018-09-15T20:33:34.638Z,98937.44
2018-09-15T20:36:07.080Z,98940.63
2018-09-15T20:38:39.598Z,98938.80
2018-09-15T20:41:12.029Z,98938.86
2018-09-15T20:43:44.515Z,98943.59
2018-09-15T20:46:16.911Z,98941.53
2018-09-15T20:48:49.302Z,98942.55
2018-09-15T20:51:21.717Z,98938.78
2018-09-15T20:53:54.015Z,98932.95
2018-09-15T20:56:26.358Z,98937.62
2018-09-15T20:58:58.741Z,98934.95
2018-09-15T21:01:31.097Z,98935.59
2018-09-15T21:04:03.566Z,98939.00
2018-09-15T21:06:35.924Z,98937.81
2018-09-15T21:09:09.811Z,98936.02
2018-09-15T21:11:42.191Z,98938.30
2018-09-15T21:14:14.577Z,98945.08
2018-09-15T21:16:46.993Z,98940.72
2018-09-15T21:19:19.287Z,98944.10
2018-09-15T21:21:51.748Z,98941.35
2018-09-15T21:24:24.168Z,98937.73
2018-09-15T21:26:56.521Z,98942.17
2018-09-15T21:29:28.839Z,98948.60
2018-09-15T21:32:01.208Z,98954.56
2018-09-15T21:34:33.560Z,98954.85
2018-09-15T21:37:06.471Z,98948.23
2018-09-15T21:39:38.809Z,98949.35
2018-09-15T21:42:11.181Z,98951.27
2018-09-15T21:44:43.560Z,98946.42
2018-09-15T21:47:15.911Z,98948.11
2018-09-15T21:49:48.298Z,98949.20
2018-09-15T21:52:20.659Z,98956.26
2018-09-15T21:54:53.437Z,98949.35
2018-09-15T21:57:25.806Z,98949.83
2018-09-15T21:59:58.168Z,98949.13
2018-09-15T22:02:31.753Z,98954.09
2018-09-15T22:05:04.204Z,98955.30
2018-09-15T22:07:36.748Z,98957.09
2018-09-15T22:10:09.088Z,98960.69
2018-09-15T22:12:41.487Z,98957.71
2018-09-15T22:15:20.354Z,98962.66
2018-09-15T22:17:53.608Z,98962.85
2018-09-15T22:20:26.271Z,98961.97
2018-09-15T22:22:58.653Z,98965.73
2018-09-15T22:25:30.999Z,98969.30
2018-09-15T22:28:03.380Z,98974.66
2018-09-15T22:30:35.651Z,98976.45
2018-09-15T22:33:08.005Z,98981.66
2018-09-15T22:35:40.326Z,98971.69
2018-09-15T22:38:12.650Z,98974.57
2018-09-15T22:40:44.948Z,98970.22
2018-09-15T22:43:17.230Z,98970.53
2018-09-15T22:45:49.607Z,98972.09
2018-09-15T22:48:21.923Z,98970.83
2018-09-15T22:50:54.269Z,98969.72
2018-09-15T22:53:26.602Z,98966.48
2018-09-15T22:55:58.957Z,98968.56
2018-09-15T22:58:31.296Z,98971.70
2018-09-15T23:01:03.724Z,98967.04
2018-09-15T23:03:36.058Z,98967.64
2018-09-15T23:06:08.445Z,98962.91
2018-09-15T23:08:40.782Z,98961.42
2018-09-15T23:11:13.156Z,98966.35
2018-09-15T23:13:45.457Z,98961.11
2018-09-15T23:16:17.792Z,98959.34
2018-09-15T23:18:50.136Z,98953.41
2018-09-15T23:21:22.482Z,98950.83
2018-09-15T23:23:54.957Z,98957.36
2018-09-15T23:26:27.229Z,98957.08
2018-09-15T23:28:59.553Z,98956.55
2018-09-15T23:31:31.971Z,98962.77
2018-09-15T23:34:04.372Z,98960.00
2018-09-15T23:36:36.708Z,98963.05
2018-09-15T23:39:09.064Z,98965.86
2018-09-15T23:41:41.376Z,98954.48
2018-09-15T23:44:13.736Z,98954.31
2018-09-15T23:46:46.126Z,98947.09
2018-09-15T23:49:18.581Z,98955.48
2018-09-15T23:51:50.905Z,98947.66
2018-09-15T23:54:23.306Z,98941.73
2018-09-15T23:56:55.631Z,98940.25
2018-09-15T23:59:28.097Z,98939.05
